sensor_id;sensor_type;location;lat;lon;timestamp;pressure;altitude;pressure_sealevel;temperature;humidity
61568;BME280;47462;59.172;17.196;2022-08-18T00:01:45;101041.16;;;18.58;83.13
61568;BME280;47462;59.172;17.196;2022-08-18T00:04:13;101038.63;;;18.57;83.03
61568;BME280;47462;59.172;17.196;2022-08-18T00:06:38;101051.34;;;18.50;83.27
61568;BME280;47462;59.172;17.196;2022-08-18T00:09:06;101044.25;;;18.50;83.29
61568;BME280;47462;59.172;17.196;2022-08-18T00:11:35;101056.63;;;18.50;83.28
61568;BME280;47462;59.172;17.196;2022-08-18T00:14:01;101048.06;;;18.45;83.27
61568;BME280;47462;59.172;17.196;2022-08-18T00:16:26;101045.59;;;18.42;83.38
61568;BME280;47462;59.172;17.196;2022-08-18T00:18:51;101040.66;;;18.35;83.35
61568;BME280;47462;59.172;17.196;2022-08-18T00:21:17;101054.72;;;18.36;83.43
61568;BME280;47462;59.172;17.196;2022-08-18T00:23:42;101048.59;;;18.35;83.15
61568;BME280;47462;59.172;17.196;2022-08-18T00:26:07;101053.13;;;18.33;83.25
61568;BME280;47462;59.172;17.196;2022-08-18T00:28:33;101034.34;;;18.22;83.19
61568;BME280;47462;59.172;17.196;2022-08-18T00:30:58;101046.31;;;18.29;83.13
61568;BME280;47462;59.172;17.196;2022-08-18T00:33:24;101037.88;;;18.23;82.90
61568;BME280;47462;59.172;17.196;2022-08-18T00:35:49;101038.13;;;18.18;83.14
61568;BME280;47462;59.172;17.196;2022-08-18T00:38:15;101022.88;;;18.07;83.30
61568;BME280;47462;59.172;17.196;2022-08-18T00:40:47;101056.38;;;18.23;83.28
61568;BME280;47462;59.172;17.196;2022-08-18T00:43:39;101059.09;;;18.21;83.22
61568;BME280;47462;59.172;17.196;2022-08-18T00:46:31;101053.19;;;18.16;83.11
61568;BME280;47462;59.172;17.196;2022-08-18T00:48:56;101057.38;;;18.20;83.26
61568;BME280;47462;59.172;17.196;2022-08-18T00:51:28;101057.53;;;18.17;83.54
61568;BME280;47462;59.172;17.196;2022-08-18T00:54:00;101032.72;;;18.04;83.50
61568;BME280;47462;59.172;17.196;2022-08-18T00:56:32;101029.94;;;18.07;83.34
61568;BME280;47462;59.172;17.196;2022-08-18T00:59:05;101035.22;;;18.07;83.16
61568;BME280;47462;59.172;17.196;2022-08-18T01:01:33;101057.53;;;18.17;83.17
61568;BME280;47462;59.172;17.196;2022-08-18T01:04:07;101057.72;;;18.14;83.25
61568;BME280;47462;59.172;17.196;2022-08-18T01:06:41;101075.44;;;18.12;83.36
61568;BME280;47462;59.172;17.196;2022-08-18T01:09:09;101057.72;;;17.98;83.42
61568;BME280;47462;59.172;17.196;2022-08-18T01:11:37;101072.44;;;18.02;83.49
61568;BME280;47462;59.172;17.196;2022-08-18T01:14:04;101079.09;;;18.09;83.29
61568;BME280;47462;59.172;17.196;2022-08-18T01:16:31;101074.91;;;18.05;83.40
61568;BME280;47462;59.172;17.196;2022-08-18T01:19:16;101081.16;;;18.04;83.41
61568;BME280;47462;59.172;17.196;2022-08-18T01:22:10;101072.59;;;17.99;83.44
61568;BME280;47462;59.172;17.196;2022-08-18T01:24:37;101057.53;;;17.83;83.75
61568;BME280;47462;59.172;17.196;2022-08-18T01:27:22;101086.50;;;18.03;83.81
61568;BME280;47462;59.172;17.196;2022-08-18T01:29:49;101080.34;;;18.02;83.57
61568;BME280;47462;59.172;17.196;2022-08-18T01:32:16;101079.94;;;17.94;83.79
61568;BME280;47462;59.172;17.196;2022-08-18T01:34:44;101078.28;;;17.91;84.17
61568;BME280;47462;59.172;17.196;2022-08-18T01:37:13;101029.81;;;17.59;84.21
61568;BME280;47462;59.172;17.196;2022-08-18T01:39:39;101082.66;;;17.92;84.33
61568;BME280;47462;59.172;17.196;2022-08-18T01:42:05;101082.03;;;17.87;84.17
61568;BME280;47462;59.172;17.196;2022-08-18T01:44:30;101059.84;;;17.74;84.18
61568;BME280;47462;59.172;17.196;2022-08-18T01:46:57;101072.63;;;17.81;84.19
61568;BME280;47462;59.172;17.196;2022-08-18T01:49:23;101089.31;;;17.82;84.14
61568;BME280;47462;59.172;17.196;2022-08-18T01:51:48;101083.44;;;17.77;84.12
61568;BME280;47462;59.172;17.196;2022-08-18T01:54:14;101090.47;;;17.76;84.15
61568;BME280;47462;59.172;17.196;2022-08-18T01:56:40;101069.84;;;17.67;84.16
61568;BME280;47462;59.172;17.196;2022-08-18T01:59:07;101091.19;;;17.80;84.20
61568;BME280;47462;59.172;17.196;2022-08-18T02:01:41;101083.28;;;17.80;84.35
61568;BME280;47462;59.172;17.196;2022-08-18T02:04:08;101074.03;;;17.71;84.14
61568;BME280;47462;59.172;17.196;2022-08-18T02:06:34;101067.22;;;17.67;84.47
61568;BME280;47462;59.172;17.196;2022-08-18T02:09:00;101073.97;;;17.73;84.42
61568;BME280;47462;59.172;17.196;2022-08-18T02:11:26;101077.59;;;17.70;84.45
61568;BME280;47462;59.172;17.196;2022-08-18T02:13:51;101078.56;;;17.69;84.44
61568;BME280;47462;59.172;17.196;2022-08-18T02:16:17;101077.94;;;17.64;84.02
61568;BME280;47462;59.172;17.196;2022-08-18T02:18:42;101082.44;;;17.62;84.38
61568;BME280;47462;59.172;17.196;2022-08-18T02:21:14;101063.78;;;17.49;84.35
61568;BME280;47462;59.172;17.196;2022-08-18T02:23:41;101082.53;;;17.60;84.39
61568;BME280;47462;59.172;17.196;2022-08-18T02:26:08;101064.53;;;17.51;84.35
61568;BME280;47462;59.172;17.196;2022-08-18T02:28:35;101045.63;;;17.43;84.56
61568;BME280;47462;59.172;17.196;2022-08-18T02:31:05;101078.09;;;17.61;84.36
61568;BME280;47462;59.172;17.196;2022-08-18T02:33:32;101085.09;;;17.62;84.41
61568;BME280;47462;59.172;17.196;2022-08-18T02:35:57;100996.78;;;17.01;84.19
61568;BME280;47462;59.172;17.196;2022-08-18T02:38:23;101086.31;;;17.55;84.26
61568;BME280;47462;59.172;17.196;2022-08-18T02:40:57;101083.75;;;17.53;84.21
61568;BME280;47462;59.172;17.196;2022-08-18T02:43:23;101085.56;;;17.53;84.40
61568;BME280;47462;59.172;17.196;2022-08-18T02:45:48;101079.53;;;17.51;84.25
61568;BME280;47462;59.172;17.196;2022-08-18T02:48:14;101079.53;;;17.51;84.10
61568;BME280;47462;59.172;17.196;2022-08-18T02:50:39;101074.56;;;17.44;84.28
61568;BME280;47462;59.172;17.196;2022-08-18T02:53:10;101078.03;;;17.45;84.12
61568;BME280;47462;59.172;17.196;2022-08-18T02:55:38;101058.97;;;17.40;84.27
61568;BME280;47462;59.172;17.196;2022-08-18T02:58:03;101071.28;;;17.39;84.11
61568;BME280;47462;59.172;17.196;2022-08-18T03:00:29;101044.31;;;17.17;84.18
61568;BME280;47462;59.172;17.196;2022-08-18T03:02:54;101075.03;;;17.35;84.22
61568;BME280;47462;59.172;17.196;2022-08-18T03:05:19;101054.50;;;17.24;84.24
61568;BME280;47462;59.172;17.196;2022-08-18T03:07:45;101076.88;;;17.33;84.21
61568;BME280;47462;59.172;17.196;2022-08-18T03:10:11;101083.03;;;17.34;84.44
61568;BME280;47462;59.172;17.196;2022-08-18T03:12:41;101055.56;;;17.20;84.37
61568;BME280;47462;59.172;17.196;2022-08-18T03:15:07;101078.75;;;17.31;84.72
61568;BME280;47462;59.172;17.196;2022-08-18T03:17:34;101080.72;;;17.27;84.64
61568;BME280;47462;59.172;17.196;2022-08-18T03:19:59;101068.44;;;17.26;84.71
61568;BME280;47462;59.172;17.196;2022-08-18T03:22:24;101070.06;;;17.29;84.83
61568;BME280;47462;59.172;17.196;2022-08-18T03:24:50;101057.28;;;17.21;85.25
61568;BME280;47462;59.172;17.196;2022-08-18T03:27:15;101078.00;;;17.29;85.22
61568;BME280;47462;59.172;17.196;2022-08-18T03:29:41;101090.16;;;17.32;85.21
61568;BME280;47462;59.172;17.196;2022-08-18T03:32:06;101092.94;;;17.28;85.35
61568;BME280;47462;59.172;17.196;2022-08-18T03:34:33;101080.88;;;17.24;85.21
61568;BME280;47462;59.172;17.196;2022-08-18T03:36:58;101091.34;;;17.26;85.32
61568;BME280;47462;59.172;17.196;2022-08-18T03:39:24;101096.53;;;17.27;85.13
61568;BME280;47462;59.172;17.196;2022-08-18T03:41:52;101074.41;;;17.13;85.05
61568;BME280;47462;59.172;17.196;2022-08-18T03:44:19;101106.78;;;17.34;84.98
61568;BME280;47462;59.172;17.196;2022-08-18T03:46:44;101105.13;;;17.31;85.10
61568;BME280;47462;59.172;17.196;2022-08-18T03:49:11;101099.31;;;17.24;85.17
61568;BME280;47462;59.172;17.196;2022-08-18T03:51:37;101099.41;;;17.23;85.13
61568;BME280;47462;59.172;17.196;2022-08-18T03:54:04;101113.56;;;17.38;85.10
61568;BME280;47462;59.172;17.196;2022-08-18T03:56:35;101110.34;;;17.33;84.95
61568;BME280;47462;59.172;17.196;2022-08-18T03:59:11;101116.13;;;17.39;85.09
61568;BME280;47462;59.172;17.196;2022-08-18T04:01:40;101124.94;;;17.40;85.24
61568;BME280;47462;59.172;17.196;2022-08-18T04:04:08;101110.25;;;17.34;85.49
61568;BME280;47462;59.172;17.196;2022-08-18T04:06:40;101088.78;;;17.24;85.59
61568;BME280;47462;59.172;17.196;2022-08-18T04:09:10;101120.56;;;17.39;85.86
61568;BME280;47462;59.172;17.196;2022-08-18T04:11:37;101123.50;;;17.50;85.91
61568;BME280;47462;59.172;17.196;2022-08-18T04:14:04;101113.81;;;17.51;85.90
61568;BME280;47462;59.172;17.196;2022-08-18T04:16:31;101125.50;;;17.62;85.92
61568;BME280;47462;59.172;17.196;2022-08-18T04:18:57;101112.94;;;17.68;85.93
61568;BME280;47462;59.172;17.196;2022-08-18T04:21:26;101123.19;;;17.74;85.68
61568;BME280;47462;59.172;17.196;2022-08-18T04:23:52;101121.31;;;17.76;85.58
61568;BME280;47462;59.172;17.196;2022-08-18T04:26:17;101090.44;;;17.60;85.56
61568;BME280;47462;59.172;17.196;2022-08-18T04:28:44;101094.41;;;17.69;85.73
61568;BME280;47462;59.172;17.196;2022-08-18T04:31:11;101127.28;;;17.97;85.49
61568;BME280;47462;59.172;17.196;2022-08-18T04:33:38;101111.84;;;17.89;85.17
61568;BME280;47462;59.172;17.196;2022-08-18T04:36:12;101139.81;;;17.93;85.09
61568;BME280;47462;59.172;17.196;2022-08-18T04:38:39;101142.47;;;17.93;85.08
61568;BME280;47462;59.172;17.196;2022-08-18T04:41:06;101141.41;;;17.96;84.97
61568;BME280;47462;59.172;17.196;2022-08-18T04:43:33;101132.66;;;17.95;84.60
61568;BME280;47462;59.172;17.196;2022-08-18T04:45:59;101102.06;;;17.74;84.63
61568;BME280;47462;59.172;17.196;2022-08-18T04:48:37;101137.69;;;18.00;84.57
61568;BME280;47462;59.172;17.196;2022-08-18T04:53:31;101121.78;;;17.84;84.56
61568;BME280;47462;59.172;17.196;2022-08-18T04:56:27;101149.09;;;18.00;84.41
61568;BME280;47462;59.172;17.196;2022-08-18T04:59:06;101134.69;;;17.90;84.49
61568;BME280;47462;59.172;17.196;2022-08-18T05:01:40;101132.13;;;17.89;84.72
61568;BME280;47462;59.172;17.196;2022-08-18T05:04:07;101150.06;;;17.99;84.71
61568;BME280;47462;59.172;17.196;2022-08-18T05:06:33;101097.13;;;17.68;84.93
61568;BME280;47462;59.172;17.196;2022-08-18T05:09:03;101158.41;;;18.08;85.09
61568;BME280;47462;59.172;17.196;2022-08-18T05:11:30;101140.00;;;18.06;84.81
61568;BME280;47462;59.172;17.196;2022-08-18T05:14:04;101152.72;;;18.31;84.84
61568;BME280;47462;59.172;17.196;2022-08-18T05:16:30;101125.03;;;18.23;84.65
61568;BME280;47462;59.172;17.196;2022-08-18T05:19:06;101160.03;;;18.44;84.46
61568;BME280;47462;59.172;17.196;2022-08-18T05:21:31;101142.09;;;18.33;84.65
61568;BME280;47462;59.172;17.196;2022-08-18T05:23:58;101148.84;;;18.39;84.84
61568;BME280;47462;59.172;17.196;2022-08-18T05:26:25;101144.00;;;18.47;84.55
61568;BME280;47462;59.172;17.196;2022-08-18T05:28:52;101145.19;;;18.57;84.11
61568;BME280;47462;59.172;17.196;2022-08-18T05:31:18;101169.41;;;18.81;83.90
61568;BME280;47462;59.172;17.196;2022-08-18T05:33:45;101146.38;;;18.83;83.33
61568;BME280;47462;59.172;17.196;2022-08-18T05:39:12;101164.25;;;19.26;82.82
61568;BME280;47462;59.172;17.196;2022-08-18T05:41:42;101155.13;;;19.32;82.84
61568;BME280;47462;59.172;17.196;2022-08-18T05:44:13;101159.78;;;19.42;82.77
61568;BME280;47462;59.172;17.196;2022-08-18T05:46:55;101130.09;;;19.37;82.85
61568;BME280;47462;59.172;17.196;2022-08-18T05:49:25;101149.44;;;19.68;82.79
61568;BME280;47462;59.172;17.196;2022-08-18T05:51:55;101154.91;;;19.95;82.64
61568;BME280;47462;59.172;17.196;2022-08-18T05:54:22;101156.31;;;20.16;82.94
61568;BME280;47462;59.172;17.196;2022-08-18T05:57:16;101173.91;;;20.45;82.07
61568;BME280;47462;59.172;17.196;2022-08-18T05:59:44;101155.16;;;20.48;81.80
61568;BME280;47462;59.172;17.196;2022-08-18T06:02:32;101183.84;;;20.71;81.28
61568;BME280;47462;59.172;17.196;2022-08-18T06:05:03;101181.91;;;20.87;80.78
61568;BME280;47462;59.172;17.196;2022-08-18T06:08:19;101187.91;;;21.03;79.75
61568;BME280;47462;59.172;17.196;2022-08-18T06:10:20;101192.00;;;21.22;78.78
61568;BME280;47462;59.172;17.196;2022-08-18T06:12:48;101186.09;;;21.31;77.89
61568;BME280;47462;59.172;17.196;2022-08-18T06:15:26;101162.78;;;21.36;76.64
61568;BME280;47462;59.172;17.196;2022-08-18T06:20:40;101187.72;;;21.87;75.77
61568;BME280;47462;59.172;17.196;2022-08-18T06:26:18;101194.63;;;22.15;73.96
61568;BME280;47462;59.172;17.196;2022-08-18T06:37:22;101172.50;;;22.27;71.38
61568;BME280;47462;59.172;17.196;2022-08-18T06:39:51;101160.63;;;22.33;71.40
61568;BME280;47462;59.172;17.196;2022-08-18T06:42:18;101178.13;;;22.49;70.43
61568;BME280;47462;59.172;17.196;2022-08-18T06:44:52;101198.81;;;22.69;69.47
61568;BME280;47462;59.172;17.196;2022-08-18T06:50:12;101186.00;;;22.87;68.86
61568;BME280;47462;59.172;17.196;2022-08-18T06:52:56;101172.25;;;22.93;67.97
61568;BME280;47462;59.172;17.196;2022-08-18T06:55:35;101172.47;;;22.90;67.13
61568;BME280;47462;59.172;17.196;2022-08-18T06:58:19;101183.03;;;23.03;66.96
61568;BME280;47462;59.172;17.196;2022-08-18T07:03:18;101184.75;;;23.17;65.64
61568;BME280;47462;59.172;17.196;2022-08-18T07:08:33;101191.47;;;23.34;64.25
61568;BME280;47462;59.172;17.196;2022-08-18T07:11:27;101176.69;;;23.30;64.53
61568;BME280;47462;59.172;17.196;2022-08-18T07:14:21;101189.78;;;23.44;63.98
61568;BME280;47462;59.172;17.196;2022-08-18T07:16:48;101194.81;;;23.60;64.21
61568;BME280;47462;59.172;17.196;2022-08-18T07:19:19;101186.63;;;23.75;63.53
61568;BME280;47462;59.172;17.196;2022-08-18T07:21:46;101178.84;;;23.72;62.30
61568;BME280;47462;59.172;17.196;2022-08-18T07:24:27;101187.25;;;23.78;61.56
61568;BME280;47462;59.172;17.196;2022-08-18T07:29:32;101190.75;;;23.79;61.63
61568;BME280;47462;59.172;17.196;2022-08-18T07:32:05;101193.22;;;23.93;61.68
61568;BME280;47462;59.172;17.196;2022-08-18T07:34:40;101202.56;;;24.10;61.89
61568;BME280;47462;59.172;17.196;2022-08-18T07:37:16;101216.16;;;24.30;61.62
61568;BME280;47462;59.172;17.196;2022-08-18T07:39:54;101189.00;;;24.25;62.62
61568;BME280;47462;59.172;17.196;2022-08-18T07:42:38;101212.91;;;24.49;62.52
61568;BME280;47462;59.172;17.196;2022-08-18T07:50:56;101216.88;;;24.77;61.12
61568;BME280;47462;59.172;17.196;2022-08-18T07:56:31;101202.19;;;24.83;60.55
61568;BME280;47462;59.172;17.196;2022-08-18T08:02:03;101209.66;;;25.12;60.58
61568;BME280;47462;59.172;17.196;2022-08-18T08:04:48;101216.41;;;25.27;60.63
61568;BME280;47462;59.172;17.196;2022-08-18T08:07:25;101210.31;;;25.25;59.91
61568;BME280;47462;59.172;17.196;2022-08-18T08:10:21;101225.75;;;25.21;59.37
61568;BME280;47462;59.172;17.196;2022-08-18T08:13:14;101209.56;;;25.34;59.57
61568;BME280;47462;59.172;17.196;2022-08-18T08:21:13;101201.66;;;25.86;58.12
61568;BME280;47462;59.172;17.196;2022-08-18T08:29:13;101191.09;;;26.06;57.26
61568;BME280;47462;59.172;17.196;2022-08-18T08:31:51;101175.41;;;25.70;57.75
61568;BME280;47462;59.172;17.196;2022-08-18T08:34:45;101204.41;;;25.75;56.80
61568;BME280;47462;59.172;17.196;2022-08-18T08:37:18;101199.91;;;25.75;57.65
61568;BME280;47462;59.172;17.196;2022-08-18T08:40:19;101210.47;;;25.98;57.61
61568;BME280;47462;59.172;17.196;2022-08-18T08:42:53;101206.09;;;26.28;56.98
61568;BME280;47462;59.172;17.196;2022-08-18T08:45:37;101217.00;;;26.67;56.54
61568;BME280;47462;59.172;17.196;2022-08-18T08:48:08;101213.94;;;26.91;55.30
61568;BME280;47462;59.172;17.196;2022-08-18T08:50:45;101214.41;;;27.06;55.59
61568;BME280;47462;59.172;17.196;2022-08-18T08:53:22;101195.06;;;26.93;54.64
61568;BME280;47462;59.172;17.196;2022-08-18T08:55:54;101209.59;;;27.00;54.59
61568;BME280;47462;59.172;17.196;2022-08-18T08:58:42;101205.34;;;27.07;54.55
61568;BME280;47462;59.172;17.196;2022-08-18T09:01:21;101171.69;;;27.14;53.58
61568;BME280;47462;59.172;17.196;2022-08-18T09:15:40;101178.97;;;27.71;51.69
61568;BME280;47462;59.172;17.196;2022-08-18T09:23:22;101181.81;;;27.69;52.19
61568;BME280;47462;59.172;17.196;2022-08-18T09:25:52;101176.72;;;27.56;51.50
61568;BME280;47462;59.172;17.196;2022-08-18T09:28:21;101187.75;;;27.63;52.22
61568;BME280;47462;59.172;17.196;2022-08-18T09:31:35;101187.47;;;27.56;51.79
61568;BME280;47462;59.172;17.196;2022-08-18T09:41:59;101156.03;;;27.39;52.05
61568;BME280;47462;59.172;17.196;2022-08-18T09:47:11;101169.72;;;27.93;50.85
61568;BME280;47462;59.172;17.196;2022-08-18T09:49:43;101125.44;;;27.79;50.55
61568;BME280;47462;59.172;17.196;2022-08-18T09:55:08;101171.84;;;28.09;49.35
61568;BME280;47462;59.172;17.196;2022-08-18T09:58:15;101185.59;;;28.24;50.44
61568;BME280;47462;59.172;17.196;2022-08-18T10:00:42;101165.50;;;28.38;49.68
61568;BME280;47462;59.172;17.196;2022-08-18T10:03:15;101166.94;;;28.60;49.75
61568;BME280;47462;59.172;17.196;2022-08-18T10:05:56;101157.31;;;28.57;48.35
61568;BME280;47462;59.172;17.196;2022-08-18T10:08:56;101164.97;;;28.80;49.10
61568;BME280;47462;59.172;17.196;2022-08-18T10:12:31;101153.59;;;28.68;48.38
61568;BME280;47462;59.172;17.196;2022-08-18T10:20:58;101159.91;;;28.49;48.71
61568;BME280;47462;59.172;17.196;2022-08-18T10:23:48;101150.41;;;28.27;48.55
61568;BME280;47462;59.172;17.196;2022-08-18T10:29:00;101146.38;;;28.13;49.10
61568;BME280;47462;59.172;17.196;2022-08-18T10:31:28;101126.41;;;27.98;49.55
61568;BME280;47462;59.172;17.196;2022-08-18T10:34:07;101150.31;;;28.19;49.80
61568;BME280;47462;59.172;17.196;2022-08-18T10:39:06;101121.75;;;28.27;48.96
61568;BME280;47462;59.172;17.196;2022-08-18T10:41:36;101153.94;;;28.55;48.54
61568;BME280;47462;59.172;17.196;2022-08-18T10:44:04;101142.97;;;28.49;48.51
61568;BME280;47462;59.172;17.196;2022-08-18T10:46:33;101137.75;;;28.47;49.63
61568;BME280;47462;59.172;17.196;2022-08-18T10:51:48;101151.84;;;29.31;48.27
61568;BME280;47462;59.172;17.196;2022-08-18T10:54:37;101155.31;;;29.67;46.81
61568;BME280;47462;59.172;17.196;2022-08-18T10:59:56;101140.91;;;29.77;46.06
61568;BME280;47462;59.172;17.196;2022-08-18T11:05:26;101153.09;;;29.89;44.45
61568;BME280;47462;59.172;17.196;2022-08-18T11:08:01;101133.59;;;29.87;44.64
61568;BME280;47462;59.172;17.196;2022-08-18T11:10:45;101147.63;;;29.99;44.37
61568;BME280;47462;59.172;17.196;2022-08-18T11:18:45;101139.75;;;30.40;44.06
61568;BME280;47462;59.172;17.196;2022-08-18T11:24:23;101132.19;;;30.52;42.67
61568;BME280;47462;59.172;17.196;2022-08-18T11:27:04;101111.03;;;30.14;42.98
61568;BME280;47462;59.172;17.196;2022-08-18T11:29:33;101132.91;;;30.28;42.44
61568;BME280;47462;59.172;17.196;2022-08-18T11:34:45;101136.72;;;30.43;42.90
61568;BME280;47462;59.172;17.196;2022-08-18T11:45:21;101109.06;;;29.90;43.65
61568;BME280;47462;59.172;17.196;2022-08-18T11:59:01;101110.66;;;30.60;42.67
61568;BME280;47462;59.172;17.196;2022-08-18T12:03:58;101118.41;;;30.71;42.65
61568;BME280;47462;59.172;17.196;2022-08-18T12:06:32;101134.41;;;30.65;42.05
61568;BME280;47462;59.172;17.196;2022-08-18T12:08:59;101133.88;;;30.45;42.84
61568;BME280;47462;59.172;17.196;2022-08-18T12:11:31;101119.78;;;30.24;43.85
61568;BME280;47462;59.172;17.196;2022-08-18T12:14:05;101103.09;;;30.13;43.77
61568;BME280;47462;59.172;17.196;2022-08-18T12:16:39;101127.84;;;30.16;43.71
61568;BME280;47462;59.172;17.196;2022-08-18T12:19:11;101117.91;;;30.17;43.25
61568;BME280;47462;59.172;17.196;2022-08-18T12:21:44;101111.69;;;30.16;44.48
61568;BME280;47462;59.172;17.196;2022-08-18T12:24:24;101112.25;;;30.36;43.17
61568;BME280;47462;59.172;17.196;2022-08-18T12:26:50;101097.75;;;30.21;42.82
61568;BME280;47462;59.172;17.196;2022-08-18T12:29:17;101084.03;;;29.98;43.91
61568;BME280;47462;59.172;17.196;2022-08-18T12:31:44;101090.88;;;30.27;43.40
61568;BME280;47462;59.172;17.196;2022-08-18T12:34:10;101075.91;;;30.32;42.65
61568;BME280;47462;59.172;17.196;2022-08-18T12:36:36;101087.31;;;30.26;43.20
61568;BME280;47462;59.172;17.196;2022-08-18T12:39:02;101088.59;;;30.05;43.68
61568;BME280;47462;59.172;17.196;2022-08-18T12:41:27;101087.88;;;29.95;44.29
61568;BME280;47462;59.172;17.196;2022-08-18T12:43:53;101097.97;;;29.93;43.94
61568;BME280;47462;59.172;17.196;2022-08-18T12:46:19;101097.31;;;29.91;44.29
61568;BME280;47462;59.172;17.196;2022-08-18T12:48:45;101083.16;;;29.89;44.67
61568;BME280;47462;59.172;17.196;2022-08-18T12:51:10;101086.72;;;29.98;44.10
61568;BME280;47462;59.172;17.196;2022-08-18T12:53:38;101097.66;;;29.96;44.13
61568;BME280;47462;59.172;17.196;2022-08-18T12:56:31;101092.59;;;29.67;43.92
61568;BME280;47462;59.172;17.196;2022-08-18T12:59:02;101099.47;;;29.61;46.21
61568;BME280;47462;59.172;17.196;2022-08-18T13:01:28;101088.69;;;29.61;46.67
61568;BME280;47462;59.172;17.196;2022-08-18T13:03:55;101084.06;;;29.71;46.74
61568;BME280;47462;59.172;17.196;2022-08-18T13:06:22;101095.97;;;29.95;46.70
61568;BME280;47462;59.172;17.196;2022-08-18T13:08:51;101087.88;;;29.95;46.65
61568;BME280;47462;59.172;17.196;2022-08-18T13:11:18;101076.09;;;29.88;47.14
61568;BME280;47462;59.172;17.196;2022-08-18T13:13:44;101082.34;;;29.97;46.97
61568;BME280;47462;59.172;17.196;2022-08-18T13:16:11;101075.72;;;29.83;46.59
61568;BME280;47462;59.172;17.196;2022-08-18T13:18:37;101065.88;;;29.65;46.00
61568;BME280;47462;59.172;17.196;2022-08-18T13:21:11;101084.28;;;29.52;46.60
61568;BME280;47462;59.172;17.196;2022-08-18T13:23:37;101100.41;;;29.52;46.77
61568;BME280;47462;59.172;17.196;2022-08-18T13:26:06;101089.94;;;29.41;47.15
61568;BME280;47462;59.172;17.196;2022-08-18T13:28:32;101086.81;;;29.53;46.98
61568;BME280;47462;59.172;17.196;2022-08-18T13:30:58;101078.16;;;29.68;47.34
61568;BME280;47462;59.172;17.196;2022-08-18T13:33:24;101092.47;;;29.77;47.94
61568;BME280;47462;59.172;17.196;2022-08-18T13:35:50;101080.72;;;30.12;46.37
61568;BME280;47462;59.172;17.196;2022-08-18T13:38:17;101087.34;;;30.34;46.80
61568;BME280;47462;59.172;17.196;2022-08-18T13:40:45;101079.56;;;30.23;46.71
61568;BME280;47462;59.172;17.196;2022-08-18T13:43:13;101075.78;;;29.91;45.71
61568;BME280;47462;59.172;17.196;2022-08-18T13:45:39;101098.13;;;29.92;46.54
61568;BME280;47462;59.172;17.196;2022-08-18T13:48:06;101084.69;;;29.92;46.70
61568;BME280;47462;59.172;17.196;2022-08-18T13:50:32;101092.19;;;30.14;46.34
61568;BME280;47462;59.172;17.196;2022-08-18T13:52:57;101089.16;;;30.17;45.99
61568;BME280;47462;59.172;17.196;2022-08-18T13:55:27;101081.75;;;30.19;45.06
61568;BME280;47462;59.172;17.196;2022-08-18T13:57:53;101047.75;;;30.18;44.28
61568;BME280;47462;59.172;17.196;2022-08-18T14:00:20;101074.00;;;30.24;44.27
61568;BME280;47462;59.172;17.196;2022-08-18T14:02:50;101068.38;;;29.93;44.58
61568;BME280;47462;59.172;17.196;2022-08-18T14:05:21;101008.88;;;29.27;45.32
61568;BME280;47462;59.172;17.196;2022-08-18T14:07:47;101039.28;;;29.28;46.88
61568;BME280;47462;59.172;17.196;2022-08-18T14:10:14;101041.06;;;29.19;47.45
61568;BME280;47462;59.172;17.196;2022-08-18T14:12:40;101021.34;;;29.10;47.38
61568;BME280;47462;59.172;17.196;2022-08-18T14:15:08;101032.91;;;29.29;48.00
61568;BME280;47462;59.172;17.196;2022-08-18T14:17:35;101048.97;;;29.47;47.46
61568;BME280;47462;59.172;17.196;2022-08-18T14:20:01;101033.75;;;29.64;47.46
61568;BME280;47462;59.172;17.196;2022-08-18T14:22:45;101054.94;;;29.93;46.74
61568;BME280;47462;59.172;17.196;2022-08-18T14:25:29;101044.38;;;29.74;46.03
61568;BME280;47462;59.172;17.196;2022-08-18T14:28:13;101051.34;;;30.35;45.16
61568;BME280;47462;59.172;17.196;2022-08-18T14:30:42;101055.16;;;30.16;45.82
61568;BME280;47462;59.172;17.196;2022-08-18T14:33:07;101044.31;;;29.83;46.73
61568;BME280;47462;59.172;17.196;2022-08-18T14:35:34;101064.66;;;29.60;47.77
61568;BME280;47462;59.172;17.196;2022-08-18T14:38:01;101053.56;;;29.28;47.75
61568;BME280;47462;59.172;17.196;2022-08-18T14:40:28;101043.47;;;28.86;48.48
61568;BME280;47462;59.172;17.196;2022-08-18T14:42:55;101057.31;;;28.73;49.97
61568;BME280;47462;59.172;17.196;2022-08-18T14:45:23;101068.22;;;28.72;50.61
61568;BME280;47462;59.172;17.196;2022-08-18T14:47:49;101057.69;;;28.60;51.06
61568;BME280;47462;59.172;17.196;2022-08-18T14:50:19;101056.31;;;28.56;50.53
61568;BME280;47462;59.172;17.196;2022-08-18T14:52:44;101055.22;;;28.49;50.76
61568;BME280;47462;59.172;17.196;2022-08-18T14:55:10;101063.66;;;28.54;52.03
61568;BME280;47462;59.172;17.196;2022-08-18T14:57:38;101065.66;;;28.52;52.19
61568;BME280;47462;59.172;17.196;2022-08-18T15:00:07;101031.13;;;28.21;52.13
61568;BME280;47462;59.172;17.196;2022-08-18T15:02:38;101073.59;;;28.26;52.57
61568;BME280;47462;59.172;17.196;2022-08-18T15:05:05;101045.38;;;27.94;52.64
61568;BME280;47462;59.172;17.196;2022-08-18T15:07:31;101068.78;;;28.02;52.54
61568;BME280;47462;59.172;17.196;2022-08-18T15:09:56;101061.81;;;27.81;52.12
61568;BME280;47462;59.172;17.196;2022-08-18T15:12:24;101062.56;;;27.73;51.43
61568;BME280;47462;59.172;17.196;2022-08-18T15:14:49;101043.31;;;27.40;52.05
61568;BME280;47462;59.172;17.196;2022-08-18T15:17:15;101059.41;;;27.31;52.25